Time;durP1;ratioP1;P1;durP2;ratioP2;P2;SDS_P1;SDS_P2;PMS_P1;PMS_P2;Temp;Humidity;BMP_temperature;BMP_pressure;BME280_temperature;BME280_humidity;BME280_pressure;Samples;Min_cycle;Max_cycle;Signal;HPM_P1;HPM_P2
2022/06/26 00:01:56;;;;;;;2.13;1.80;;;24.00;60.50;;;;;;5071540;28;20751;-75
2022/06/26 00:04:23;;;;;;;1.98;1.55;;;24.00;60.50;;;;;;5070520;28;20143;-74
2022/06/26 00:06:51;;;;;;;1.55;1.45;;;23.90;60.50;;;;;;5070641;28;20508;-74
2022/06/26 00:09:18;;;;;;;2.00;1.73;;;23.90;60.50;;;;;;5070371;28;20131;-74
2022/06/26 00:11:44;;;;;;;2.13;1.92;;;24.10;62.80;;;;;;5061543;28;20048;-74
2022/06/26 00:14:11;;;;;;;2.08;1.63;;;23.90;60.50;;;;;;5050383;28;20061;-75
2022/06/26 00:16:38;;;;;;;1.95;1.75;;;23.90;60.50;;;;;;5067640;28;20067;-75
2022/06/26 00:19:05;;;;;;;1.77;1.67;;;23.90;62.30;;;;;;5070432;28;20062;-75
2022/06/26 00:21:31;;;;;;;2.85;1.63;;;23.90;60.50;;;;;;5070582;28;20152;-74
2022/06/26 00:23:59;;;;;;;1.80;1.58;;;23.90;60.50;;;;;;5070299;28;20052;-74
2022/06/26 00:26:26;;;;;;;2.08;1.60;;;22.60;61.80;;;;;;5069708;28;20057;-74
2022/06/26 00:28:53;;;;;;;2.00;1.60;;;23.90;60.50;;;;;;5050821;28;20140;-74
2022/06/26 00:31:20;;;;;;;2.83;1.85;;;23.90;60.50;;;;;;5049630;28;20057;-74
2022/06/26 00:33:46;;;;;;;2.63;1.70;;;23.90;60.50;;;;;;5050116;28;20055;-74
2022/06/26 00:36:13;;;;;;;2.20;1.80;;;23.80;60.40;;;;;;5050264;28;20618;-74
2022/06/26 00:38:40;;;;;;;1.92;1.70;;;23.80;60.40;;;;;;5049933;28;20045;-74
2022/06/26 00:41:08;;;;;;;2.53;2.10;;;23.60;62.20;;;;;;5068388;28;20131;-74
2022/06/26 00:43:35;;;;;;;2.70;1.90;;;23.80;60.40;;;;;;5067464;28;20066;-74
2022/06/26 00:46:01;;;;;;;2.30;1.90;;;23.90;60.40;;;;;;5050180;28;20067;-74
2022/06/26 00:48:28;;;;;;;3.00;1.73;;;23.80;60.40;;;;;;5049544;28;20425;-74
2022/06/26 00:50:55;;;;;;;2.15;1.80;;;23.40;61.70;;;;;;5052819;28;20049;-74
2022/06/26 00:53:21;;;;;;;2.13;1.70;;;24.50;61.70;;;;;;5049447;28;20063;-75
2022/06/26 00:55:48;;;;;;;2.33;1.90;;;23.80;60.40;;;;;;5049913;28;20106;-75
2022/06/26 00:58:18;;;;;;;2.15;1.70;;;23.80;60.30;;;;;;5049375;28;20056;-74
2022/06/26 01:00:44;;;;;;;2.20;1.83;;;23.80;60.30;;;;;;5051282;28;20139;-74
2022/06/26 01:03:11;;;;;;;1.90;1.70;;;23.80;60.30;;;;;;5069444;28;20552;-74
2022/06/26 01:05:39;;;;;;;2.25;2.05;;;23.80;60.40;;;;;;5069267;28;20060;-74
2022/06/26 01:08:07;;;;;;;2.90;2.17;;;23.80;60.30;;;;;;5069260;28;20083;-74
2022/06/26 01:10:33;;;;;;;4.15;1.77;;;23.80;60.40;;;;;;5069534;28;20056;-74
2022/06/26 01:13:00;;;;;;;2.00;1.77;;;23.70;60.30;;;;;;5069389;28;20055;-74
2022/06/26 01:15:28;;;;;;;2.13;1.92;;;23.70;60.30;;;;;;5069172;28;20052;-74
2022/06/26 01:17:55;;;;;;;2.00;1.80;;;22.90;61.60;;;;;;5062799;28;20053;-74
2022/06/26 01:20:22;;;;;;;2.38;2.03;;;23.70;60.30;;;;;;5049272;28;20147;-74
2022/06/26 01:23:01;;;;;;;2.53;2.10;;;23.80;60.40;;;;;;5049026;28;20053;-75
2022/06/26 01:25:43;;;;;;;2.35;1.98;;;23.80;60.30;;;;;;5049400;28;20053;-74
2022/06/26 01:28:09;;;;;;;3.13;1.90;;;23.70;60.30;;;;;;5049119;28;20041;-74
2022/06/26 01:30:36;;;;;;;2.05;1.85;;;23.70;60.40;;;;;;5049312;28;20490;-74
2022/06/26 01:33:03;;;;;;;2.90;2.00;;;23.60;62.40;;;;;;5048850;28;20059;-74
2022/06/26 01:35:29;;;;;;;2.38;2.10;;;23.70;60.40;;;;;;5058241;28;20040;-74
2022/06/26 01:38:07;;;;;;;2.20;2.00;;;23.70;60.40;;;;;;5053557;28;20055;-74
2022/06/26 01:40:34;;;;;;;1.98;1.77;;;23.60;62.70;;;;;;5049218;28;20128;-74
2022/06/26 01:43:00;;;;;;;2.38;2.17;;;23.70;60.40;;;;;;5031704;28;20486;-74
2022/06/26 01:45:27;;;;;;;2.40;2.20;;;23.70;60.40;;;;;;5048484;28;20088;-74
2022/06/26 01:47:54;;;;;;;2.60;1.95;;;23.60;60.80;;;;;;5048500;28;20063;-74
2022/06/26 01:50:21;;;;;;;2.38;2.05;;;23.60;60.30;;;;;;5048837;28;20504;-74
2022/06/26 01:52:48;;;;;;;2.83;2.20;;;23.60;60.30;;;;;;5049607;28;20063;-74
2022/06/26 01:55:16;;;;;;;2.22;1.98;;;23.60;60.30;;;;;;5048708;28;20198;-74
2022/06/26 01:57:42;;;;;;;2.40;2.08;;;23.40;60.40;;;;;;5048563;28;20061;-74
2022/06/26 02:00:10;;;;;;;2.75;2.10;;;23.60;60.40;;;;;;5049518;28;20053;-74
2022/06/26 02:02:37;;;;;;;2.40;2.13;;;23.60;60.30;;;;;;5064253;28;20060;-74
2022/06/26 02:05:04;;;;;;;2.60;2.30;;;23.00;61.80;;;;;;5068002;28;20083;-74
2022/06/26 02:07:31;;;;;;;3.25;2.15;;;23.60;60.30;;;;;;5068585;28;20044;-74
2022/06/26 02:15:27;;;;;;;2.60;2.40;;;23.50;60.30;;;;;;5055427;28;20044;-74
2022/06/26 02:17:55;;;;;;;2.38;2.17;;;23.40;60.90;;;;;;5067952;28;20051;-74
2022/06/26 02:20:22;;;;;;;2.40;2.20;;;23.50;60.30;;;;;;5067630;28;20477;-74
2022/06/26 02:22:48;;;;;;;2.78;2.50;;;23.50;62.30;;;;;;5067898;28;20139;-74
2022/06/26 02:25:15;;;;;;;2.17;1.98;;;23.50;60.40;;;;;;5066467;28;20410;-74
2022/06/26 02:27:43;;;;;;;2.50;2.15;;;23.50;60.40;;;;;;5068004;28;20136;-74
2022/06/26 02:30:11;;;;;;;2.20;1.90;;;23.50;60.30;;;;;;5068046;28;20052;-74
2022/06/26 02:32:38;;;;;;;2.25;2.00;;;23.30;63.10;;;;;;5067850;28;20060;-74
2022/06/26 02:35:05;;;;;;;2.35;2.15;;;23.50;62.80;;;;;;5067924;28;20055;-74
2022/06/26 02:37:31;;;;;;;3.15;2.28;;;23.50;60.30;;;;;;5068042;28;20132;-74
2022/06/26 02:39:58;;;;;;;2.50;2.28;;;23.50;60.30;;;;;;5067645;28;20394;-74
2022/06/26 02:42:25;;;;;;;2.40;2.13;;;23.50;60.30;;;;;;5061105;28;20124;-74
2022/06/26 02:44:53;;;;;;;2.63;1.92;;;23.50;60.30;;;;;;5047549;28;20057;-74
2022/06/26 02:47:20;;;;;;;2.53;2.13;;;23.50;60.30;;;;;;5048036;28;20081;-74
2022/06/26 02:49:47;;;;;;;2.38;2.17;;;22.20;61.70;;;;;;5047922;28;20059;-74
2022/06/26 02:52:13;;;;;;;2.17;1.95;;;23.50;60.30;;;;;;5047404;28;20084;-74
2022/06/26 02:54:40;;;;;;;2.20;2.00;;;23.20;62.00;;;;;;5047442;28;20048;-74
2022/06/26 02:57:07;;;;;;;2.45;2.22;;;23.50;60.30;;;;;;5047377;28;20056;-74
2022/06/26 02:59:33;;;;;;;2.78;1.90;;;23.50;60.40;;;;;;5060913;28;20075;-74
2022/06/26 03:02:01;;;;;;;2.58;2.10;;;23.50;60.30;;;;;;5059273;28;20057;-74
2022/06/26 03:04:28;;;;;;;2.30;2.10;;;23.40;62.30;;;;;;5067239;28;20485;-74
2022/06/26 03:06:55;;;;;;;2.40;2.20;;;23.40;60.30;;;;;;5067512;28;20691;-74
2022/06/26 03:09:21;;;;;;;2.30;2.10;;;23.40;60.30;;;;;;5067357;28;20044;-74
2022/06/26 03:11:48;;;;;;;3.72;2.05;;;23.40;60.30;;;;;;5067532;28;20131;-74
2022/06/26 03:14:15;;;;;;;2.38;2.15;;;23.40;60.30;;;;;;5067310;28;20052;-74
2022/06/26 03:16:42;;;;;;;2.17;1.98;;;23.40;60.30;;;;;;5052863;28;20103;-74
2022/06/26 03:19:10;;;;;;;2.20;2.00;;;22.00;59.60;;;;;;5046889;28;20053;-74
2022/06/26 03:21:36;;;;;;;2.47;2.10;;;23.40;60.40;;;;;;5047366;28;20057;-74
2022/06/26 03:24:03;;;;;;;2.30;1.83;;;23.40;60.40;;;;;;5046987;28;20052;-74
2022/06/26 03:26:30;;;;;;;2.17;1.98;;;23.40;60.40;;;;;;5047630;28;20049;-74
2022/06/26 03:28:57;;;;;;;2.40;2.10;;;23.40;60.40;;;;;;5062315;28;20071;-74
2022/06/26 03:31:24;;;;;;;2.83;2.00;;;23.30;62.00;;;;;;5071375;28;20083;-74
2022/06/26 03:33:51;;;;;;;1.88;1.75;;;23.40;62.70;;;;;;5069020;28;20147;-74
2022/06/26 03:36:19;;;;;;;2.65;2.20;;;23.50;60.40;;;;;;5071395;28;20060;-74
2022/06/26 03:38:45;;;;;;;2.47;2.20;;;23.40;60.40;;;;;;5070781;28;20165;-74
2022/06/26 03:41:12;;;;;;;2.20;2.00;;;23.30;60.30;;;;;;5071309;28;20080;-74
2022/06/26 03:43:39;;;;;;;2.10;1.90;;;23.40;60.40;;;;;;5072203;28;20080;-74
2022/06/26 03:46:06;;;;;;;2.80;2.00;;;23.40;60.40;;;;;;5071014;28;20059;-74
2022/06/26 03:48:32;;;;;;;2.45;2.00;;;23.40;60.30;;;;;;5069516;28;20055;-73
2022/06/26 03:50:59;;;;;;;2.00;1.80;;;23.40;60.30;;;;;;5070967;28;20497;-73
2022/06/26 03:53:27;;;;;;;3.05;2.20;;;23.40;60.40;;;;;;5071836;28;20140;-73
2022/06/26 03:55:54;;;;;;;2.20;1.90;;;23.40;60.30;;;;;;5070923;28;20511;-73
2022/06/26 03:58:21;;;;;;;2.33;2.10;;;23.40;60.40;;;;;;5070499;28;20055;-73
2022/06/26 04:00:47;;;;;;;3.75;2.28;;;23.40;60.40;;;;;;5070321;28;20048;-73
2022/06/26 04:03:14;;;;;;;2.30;2.00;;;23.40;60.40;;;;;;5071093;28;20056;-73
2022/06/26 04:05:41;;;;;;;2.08;1.88;;;23.40;60.40;;;;;;5070442;28;20048;-73
2022/06/26 04:08:08;;;;;;;2.20;1.90;;;23.40;60.40;;;;;;5070068;28;20050;-73
2022/06/26 04:10:37;;;;;;;2.75;1.83;;;23.60;62.10;;;;;;5070120;28;20075;-73
2022/06/26 04:13:04;;;;;;;2.50;2.13;;;23.40;60.40;;;;;;5070108;28;20084;-73
2022/06/26 04:15:32;;;;;;;3.35;2.08;;;23.40;60.40;;;;;;5070531;28;20117;-73
2022/06/26 04:17:59;;;;;;;2.10;1.90;;;23.40;60.30;;;;;;5068601;28;20132;-73
2022/06/26 04:20:26;;;;;;;2.65;2.00;;;23.30;60.30;;;;;;5069391;28;20045;-73
2022/06/26 04:22:56;;;;;;;2.53;1.70;;;23.40;62.80;;;;;;5069110;28;20063;-73
2022/06/26 04:25:23;;;;;;;2.20;2.00;;;23.40;60.30;;;;;;5069156;28;20507;-73
2022/06/26 04:27:51;;;;;;;3.25;1.80;;;23.30;60.40;;;;;;5068899;28;20105;-73
2022/06/26 04:30:18;;;;;;;3.25;2.05;;;23.40;62.70;;;;;;5069044;28;20131;-73
2022/06/26 04:32:45;;;;;;;2.33;1.83;;;23.40;60.30;;;;;;5069096;28;20270;-73
2022/06/26 04:35:12;;;;;;;1.90;1.60;;;23.10;62.60;;;;;;5061826;28;20045;-73
2022/06/26 04:37:40;;;;;;;2.10;1.90;;;23.50;60.40;;;;;;5048523;28;20060;-73
2022/06/26 04:40:08;;;;;;;2.00;1.80;;;23.40;62.40;;;;;;5048630;28;20049;-73
2022/06/26 04:42:35;;;;;;;2.00;1.80;;;23.40;60.30;;;;;;5048448;28;20132;-73
2022/06/26 04:45:03;;;;;;;2.03;1.80;;;23.40;60.30;;;;;;5048989;28;20140;-73
2022/06/26 04:47:30;;;;;;;2.35;2.00;;;23.40;60.30;;;;;;5048237;28;20514;-73
2022/06/26 04:49:58;;;;;;;2.10;1.85;;;23.40;60.30;;;;;;5058440;28;20049;-73
2022/06/26 04:52:25;;;;;;;2.22;1.98;;;23.40;60.30;;;;;;5068930;28;20079;-73
2022/06/26 04:54:52;;;;;;;1.88;1.67;;;24.10;62.80;;;;;;5068580;28;20135;-73
2022/06/26 04:57:18;;;;;;;2.15;1.80;;;24.60;63.10;;;;;;5068767;28;20051;-73
2022/06/26 04:59:45;;;;;;;2.05;1.70;;;23.40;60.40;;;;;;5067987;28;20055;-73
2022/06/26 05:02:13;;;;;;;1.95;1.50;;;23.40;60.40;;;;;;5068283;28;20048;-73
2022/06/26 05:04:40;;;;;;;1.73;1.50;;;23.40;60.40;;;;;;5068217;28;20058;-73
2022/06/26 05:07:06;;;;;;;2.05;1.60;;;23.40;60.40;;;;;;5056316;28;20048;-73
2022/06/26 05:09:33;;;;;;;1.90;1.70;;;23.50;62.50;;;;;;5048273;28;20129;-73
2022/06/26 05:12:00;;;;;;;2.75;1.75;;;23.30;60.40;;;;;;5048558;28;20060;-73
2022/06/26 05:14:27;;;;;;;2.00;1.67;;;23.50;60.50;;;;;;5048124;28;20541;-73
2022/06/26 05:16:53;;;;;;;1.83;1.58;;;23.30;60.40;;;;;;5067205;28;20075;-73
2022/06/26 05:19:22;;;;;;;2.10;1.60;;;23.30;62.50;;;;;;5032242;28;1037683;-73
2022/06/26 05:21:48;;;;;;;2.05;1.50;;;23.30;60.40;;;;;;5069034;28;20486;-73
2022/06/26 05:24:15;;;;;;;1.70;1.60;;;23.30;60.40;;;;;;5068602;28;20040;-73
2022/06/26 05:26:42;;;;;;;2.10;1.60;;;23.30;60.40;;;;;;5068542;28;20053;-73
2022/06/26 05:29:09;;;;;;;1.75;1.50;;;23.30;60.40;;;;;;5070411;28;20152;-73
2022/06/26 05:31:35;;;;;;;2.30;1.70;;;23.30;60.40;;;;;;5068380;28;20413;-73
2022/06/26 05:34:02;;;;;;;2.08;1.60;;;23.30;60.40;;;;;;5069092;28;20143;-73
2022/06/26 05:36:30;;;;;;;1.50;1.40;;;23.30;60.40;;;;;;5069090;28;20056;-73
2022/06/26 05:38:57;;;;;;;1.52;1.42;;;23.30;60.40;;;;;;5068901;28;20076;-73
2022/06/26 05:41:24;;;;;;;1.65;1.52;;;23.50;62.70;;;;;;5068929;28;20056;-73
2022/06/26 05:43:50;;;;;;;1.63;1.52;;;23.30;60.40;;;;;;5068660;28;20063;-73
2022/06/26 05:46:17;;;;;;;1.63;1.45;;;23.30;60.40;;;;;;5069071;28;20056;-73
2022/06/26 05:48:44;;;;;;;2.00;1.60;;;22.40;62.30;;;;;;5059754;28;20124;-73
2022/06/26 05:51:11;;;;;;;2.65;1.55;;;23.40;60.50;;;;;;5048003;28;20115;-73
2022/06/26 05:53:39;;;;;;;1.60;1.50;;;23.50;60.60;;;;;;5048737;28;20059;-73
2022/06/26 05:56:05;;;;;;;2.55;1.50;;;23.50;60.50;;;;;;5048396;28;20053;-73
2022/06/26 05:58:32;;;;;;;1.60;1.42;;;23.50;60.40;;;;;;5048692;28;20496;-73
2022/06/26 06:00:59;;;;;;;1.42;1.30;;;23.60;60.40;;;;;;5050612;28;20547;-73
2022/06/26 06:03:26;;;;;;;2.03;1.50;;;23.60;62.00;;;;;;5057175;28;20057;-73
2022/06/26 06:05:52;;;;;;;1.50;1.30;;;23.70;60.30;;;;;;5048663;28;20502;-73
2022/06/26 06:08:19;;;;;;;1.70;1.60;;;23.70;61.90;;;;;;5048097;28;20052;-73
2022/06/26 06:10:47;;;;;;;1.50;1.40;;;23.70;60.10;;;;;;5048416;28;20059;-73
2022/06/26 06:13:14;;;;;;;1.58;1.48;;;23.70;60.10;;;;;;5048298;28;20683;-73
2022/06/26 06:15:40;;;;;;;2.25;1.50;;;24.10;62.30;;;;;;5057722;28;20044;-73
2022/06/26 06:18:07;;;;;;;1.70;1.52;;;23.80;60.00;;;;;;5068249;28;20053;-73
2022/06/26 06:20:34;;;;;;;1.90;1.65;;;23.90;59.90;;;;;;5067145;28;20152;-73
2022/06/26 06:23:02;;;;;;;1.60;1.50;;;23.90;59.80;;;;;;5067511;28;20132;-74
2022/06/26 06:25:28;;;;;;;1.50;1.40;;;24.10;59.70;;;;;;5059444;28;20482;-73
2022/06/26 06:27:56;;;;;;;1.65;1.55;;;24.70;61.00;;;;;;5057038;28;20053;-74
2022/06/26 06:30:23;;;;;;;1.60;1.50;;;24.20;59.50;;;;;;5049365;28;20139;-75
2022/06/26 06:32:50;;;;;;;1.50;1.33;;;24.30;59.40;;;;;;5047703;28;20044;-74
2022/06/26 06:35:17;;;;;;;1.60;1.50;;;24.30;59.20;;;;;;5050860;28;20143;-73
2022/06/26 06:37:44;;;;;;;1.40;1.30;;;25.10;59.40;;;;;;5067560;28;20485;-74
2022/06/26 06:40:12;;;;;;;1.75;1.50;;;24.40;59.00;;;;;;5067504;28;20047;-73
2022/06/26 06:42:38;;;;;;;1.90;1.67;;;25.50;62.30;;;;;;5068080;28;20135;-76
2022/06/26 06:45:08;;;;;;;1.40;1.30;;;24.40;60.20;;;;;;5055845;28;20144;-75
2022/06/26 06:47:35;;;;;;;2.08;1.30;;;24.50;58.80;;;;;;5049186;28;20124;-74
2022/06/26 06:50:02;;;;;;;2.03;1.20;;;24.60;58.90;;;;;;5048785;28;20498;-73
2022/06/26 06:52:29;;;;;;;3.47;1.40;;;24.60;58.80;;;;;;5055357;28;20048;-74
2022/06/26 06:54:56;;;;;;;1.98;1.50;;;24.60;60.40;;;;;;5066944;28;20135;-73
2022/06/26 06:57:23;;;;;;;5.80;1.75;;;24.60;58.70;;;;;;5067934;28;20413;-74
2022/06/26 06:59:49;;;;;;;2.63;1.58;;;24.90;61.50;;;;;;5067554;28;20044;-73
2022/06/26 07:02:17;;;;;;;2.42;1.40;;;24.60;58.60;;;;;;5066788;28;20056;-73
2022/06/26 07:04:44;;;;;;;4.60;1.80;;;24.50;60.70;;;;;;5067550;28;20135;-74
2022/06/26 07:07:11;;;;;;;3.50;1.70;;;24.80;58.40;;;;;;5067665;28;20056;-74
2022/06/26 07:09:37;;;;;;;4.03;2.20;;;24.80;58.90;;;;;;5054673;28;20051;-72
2022/06/26 07:12:05;;;;;;;3.40;2.40;;;24.90;60.30;;;;;;5047801;28;20332;-72
2022/06/26 07:14:31;;;;;;;3.50;2.20;;;24.90;58.20;;;;;;5047269;28;20053;-72
2022/06/26 07:16:58;;;;;;;3.65;2.05;;;24.90;58.20;;;;;;5047582;28;20053;-72
2022/06/26 07:19:26;;;;;;;6.50;2.30;;;24.80;60.20;;;;;;5047401;28;20131;-73
2022/06/26 07:21:53;;;;;;;6.88;2.25;;;24.90;58.10;;;;;;5047839;28;20056;-73
2022/06/26 07:24:20;;;;;;;2.63;2.05;;;24.90;58.10;;;;;;5048244;28;20468;-72
2022/06/26 07:26:46;;;;;;;4.85;2.10;;;24.80;59.70;;;;;;5049945;28;20037;-73
2022/06/26 07:29:13;;;;;;;3.00;1.92;;;24.80;58.10;;;;;;5047485;28;20049;-73
2022/06/26 07:31:40;;;;;;;3.72;2.05;;;24.80;58.00;;;;;;5047587;28;20057;-73
2022/06/26 07:34:16;;;;;;;4.13;1.90;;;24.80;58.00;;;;;;5047180;28;20637;-73
2022/06/26 07:36:45;;;;;;;3.10;2.20;;;24.70;59.70;;;;;;5047676;28;20073;-73
2022/06/26 07:39:13;;;;;;;2.63;1.75;;;24.80;60.20;;;;;;5047341;28;20077;-73
2022/06/26 07:41:40;;;;;;;3.53;1.90;;;24.70;58.00;;;;;;5047363;28;20056;-73
2022/06/26 07:44:07;;;;;;;2.40;1.80;;;24.50;60.30;;;;;;5046795;28;20412;-73
2022/06/26 07:46:34;;;;;;;3.30;2.00;;;24.60;58.10;;;;;;5047410;28;20139;-74
2022/06/26 07:49:01;;;;;;;2.97;2.20;;;24.60;58.20;;;;;;5048323;28;20144;-73
2022/06/26 07:51:28;;;;;;;4.13;2.33;;;24.60;58.30;;;;;;5052157;28;20491;-74
2022/06/26 07:53:56;;;;;;;3.65;1.90;;;24.50;58.30;;;;;;5052136;28;20059;-74
2022/06/26 07:56:25;;;;;;;5.32;2.65;;;25.80;61.30;;;;;;5060392;28;20155;-73
2022/06/26 07:58:52;;;;;;;3.78;2.20;;;24.70;58.40;;;;;;5065430;28;20091;-73
2022/06/26 08:01:19;;;;;;;2.15;1.85;;;24.80;58.40;;;;;;5058447;28;20151;-73
2022/06/26 08:03:45;;;;;;;4.63;1.90;;;24.80;58.30;;;;;;5067166;28;20056;-73
2022/06/26 08:06:12;;;;;;;2.53;1.98;;;24.90;58.40;;;;;;5067104;28;20055;-74
2022/06/26 08:08:39;;;;;;;2.92;1.90;;;24.80;60.20;;;;;;5066997;28;20127;-73
2022/06/26 08:11:07;;;;;;;3.70;1.90;;;25.10;60.40;;;;;;5068338;28;20058;-73
2022/06/26 08:13:34;;;;;;;3.83;1.92;;;25.20;60.20;;;;;;5068301;28;20139;-73
2022/06/26 08:16:00;;;;;;;4.47;2.00;;;25.00;57.90;;;;;;5061759;28;20049;-72
2022/06/26 08:18:27;;;;;;;3.40;2.00;;;25.00;57.80;;;;;;5050698;28;20139;-73
2022/06/26 08:20:54;;;;;;;2.40;1.80;;;25.00;60.00;;;;;;5050639;28;20045;-73
2022/06/26 08:23:21;;;;;;;18.73;2.47;;;25.00;57.70;;;;;;5050430;28;20059;-72
2022/06/26 08:25:47;;;;;;;3.95;2.35;;;25.10;57.80;;;;;;5059416;28;20049;-73
2022/06/26 08:28:15;;;;;;;2.58;2.00;;;25.10;57.70;;;;;;5050061;28;20486;-72
2022/06/26 08:30:42;;;;;;;11.57;3.85;;;25.00;57.60;;;;;;5050675;28;20056;-72
2022/06/26 08:33:09;;;;;;;3.30;2.60;;;25.10;58.00;;;;;;5050334;28;20107;-72
2022/06/26 08:35:36;;;;;;;3.20;2.25;;;25.20;57.90;;;;;;5050305;28;20057;-73
2022/06/26 08:38:02;;;;;;;2.20;1.90;;;25.20;57.90;;;;;;5050466;28;20127;-72
2022/06/26 08:40:29;;;;;;;14.23;2.58;;;25.30;57.70;;;;;;5049766;28;20423;-72
2022/06/26 08:42:56;;;;;;;10.32;2.35;;;25.40;60.20;;;;;;5053936;28;20152;-72
2022/06/26 08:45:24;;;;;;;7.00;2.03;;;25.40;57.60;;;;;;5070845;28;20048;-72
2022/06/26 08:47:52;;;;;;;6.15;1.98;;;25.50;57.70;;;;;;5070039;28;20440;-72
2022/06/26 08:50:20;;;;;;;7.45;2.25;;;25.70;59.80;;;;;;5054142;28;20063;-72
2022/06/26 08:52:49;;;;;;;7.88;2.40;;;25.70;57.50;;;;;;5050532;28;20053;-71
2022/06/26 08:55:16;;;;;;;6.75;1.90;;;25.70;57.20;;;;;;5050039;28;20080;-72
2022/06/26 08:57:43;;;;;;;7.75;1.92;;;26.00;57.00;;;;;;5050930;28;20055;-72
2022/06/26 09:00:11;;;;;;;6.63;2.17;;;25.80;56.90;;;;;;5058642;28;20094;-73
2022/06/26 09:02:39;;;;;;;5.47;2.30;;;25.90;56.90;;;;;;5052065;28;20048;-73
2022/06/26 09:05:06;;;;;;;3.03;2.10;;;25.90;56.80;;;;;;5050503;28;20134;-73
2022/06/26 09:07:33;;;;;;;2.88;2.00;;;25.70;58.10;;;;;;5052181;28;20082;-72
2022/06/26 09:10:09;;;;;;;5.40;2.30;;;26.80;57.40;;;;;;5055139;28;20502;-74
2022/06/26 09:12:36;;;;;;;6.53;1.88;;;25.80;56.60;;;;;;5049711;28;20144;-73
2022/06/26 09:15:03;;;;;;;5.55;2.00;;;25.90;59.40;;;;;;5053912;28;20048;-73
2022/06/26 09:17:30;;;;;;;5.68;1.98;;;25.80;56.60;;;;;;5069755;28;20052;-73
2022/06/26 09:19:58;;;;;;;2.15;1.85;;;25.90;56.60;;;;;;5069020;28;20040;-73
2022/06/26 09:22:25;;;;;;;4.13;1.80;;;25.90;56.60;;;;;;5069638;28;20053;-73
2022/06/26 09:24:54;;;;;;;4.47;1.90;;;25.80;56.50;;;;;;5068061;28;20102;-72
2022/06/26 09:27:21;;;;;;;5.30;1.90;;;25.80;56.50;;;;;;5069131;28;20420;-73
2022/06/26 09:29:49;;;;;;;3.33;1.90;;;25.80;58.70;;;;;;5067237;28;20102;-73
2022/06/26 09:32:16;;;;;;;2.72;1.80;;;25.80;56.50;;;;;;5058375;28;20505;-73
2022/06/26 09:34:44;;;;;;;4.25;1.77;;;25.90;56.50;;;;;;5058304;28;20145;-73
2022/06/26 09:37:12;;;;;;;3.13;1.83;;;25.90;56.50;;;;;;5051544;28;20401;-72
2022/06/26 09:39:39;;;;;;;2.35;1.90;;;26.00;56.50;;;;;;5048917;28;20052;-72
2022/06/26 09:42:19;;;;;;;3.40;1.80;;;26.00;56.50;;;;;;5048914;28;20582;-72
2022/06/26 09:44:46;;;;;;;2.42;1.80;;;26.00;56.40;;;;;;5051534;28;20495;-72
2022/06/26 09:47:22;;;;;;;2.25;1.92;;;26.10;58.00;;;;;;5059088;28;20043;-72
2022/06/26 09:49:49;;;;;;;2.47;1.80;;;26.00;56.30;;;;;;5049953;28;20060;-72
2022/06/26 09:52:17;;;;;;;1.92;1.63;;;26.00;56.20;;;;;;5048894;28;20063;-72
2022/06/26 09:54:44;;;;;;;2.75;1.80;;;26.00;56.20;;;;;;5050049;28;20409;-73
2022/06/26 09:57:11;;;;;;;1.98;1.58;;;26.10;56.20;;;;;;5048552;28;20114;-72
2022/06/26 09:59:38;;;;;;;2.13;1.60;;;26.10;56.20;;;;;;5048446;28;20144;-72
2022/06/26 10:07:34;;;;;;;1.60;1.50;;;26.00;56.40;;;;;;5048970;28;20508;-72
2022/06/26 10:10:02;;;;;;;4.90;1.92;;;26.10;56.10;;;;;;5049545;28;20045;-72
2022/06/26 10:12:28;;;;;;;2.10;1.60;;;26.10;58.00;;;;;;5052289;28;20060;-73
2022/06/26 10:14:55;;;;;;;2.88;1.67;;;26.10;56.10;;;;;;5060794;28;20582;-73
2022/06/26 10:17:31;;;;;;;3.22;1.60;;;25.90;57.70;;;;;;5056812;28;20044;-74
2022/06/26 10:19:59;;;;;;;2.65;1.77;;;26.20;56.10;;;;;;5067580;28;20474;-72
2022/06/26 10:22:26;;;;;;;1.95;1.70;;;26.10;56.00;;;;;;5051983;28;20057;-72
2022/06/26 10:24:55;;;;;;;2.38;1.58;;;26.10;56.00;;;;;;5049210;28;20157;-72
2022/06/26 10:29:47;;;;;;;2.55;1.80;;;26.10;55.60;;;;;;5086309;27;20389;-71
2022/06/26 10:32:23;;;;;;;3.83;1.70;;;26.10;56.10;;;;;;5084761;28;20083;-71
2022/06/26 10:34:55;;;;;;;6.60;1.75;;;27.00;58.30;;;;;;5084649;28;20062;-71
2022/06/26 10:37:22;;;;;;;3.85;1.85;;;25.90;58.50;;;;;;5084330;28;20052;-71
2022/06/26 10:39:49;;;;;;;3.80;1.90;;;26.00;56.20;;;;;;5085103;28;20147;-71
2022/06/26 10:45:05;;;;;;;2.78;1.77;;;26.00;56.60;;;;;;5084912;28;20075;-71
2022/06/26 10:47:46;;;;;;;6.15;2.15;;;25.90;60.00;;;;;;5084342;28;20139;-72
2022/06/26 10:50:30;;;;;;;6.30;2.17;;;25.90;57.50;;;;;;5084940;28;20509;-72
2022/06/26 10:53:13;;;;;;;4.20;1.88;;;25.70;60.40;;;;;;5084460;28;20473;-72
2022/06/26 10:55:40;;;;;;;10.95;2.50;;;25.80;58.10;;;;;;5065073;28;20054;-72
2022/06/26 10:58:06;;;;;;;7.72;2.10;;;25.80;58.60;;;;;;5064267;28;20059;-72
2022/06/26 11:00:34;;;;;;;6.80;2.13;;;25.70;58.80;;;;;;5065237;28;20417;-73
2022/06/26 11:03:01;;;;;;;5.38;2.30;;;25.80;58.60;;;;;;5083509;28;20064;-74
2022/06/26 11:05:28;;;;;;;2.58;1.90;;;25.80;61.30;;;;;;5084580;28;20066;-74
2022/06/26 11:07:55;;;;;;;6.78;1.90;;;26.40;58.80;;;;;;5075683;28;20132;-75
2022/06/26 11:10:24;;;;;;;6.20;1.90;;;25.70;58.30;;;;;;5080260;28;20060;-74
2022/06/26 11:12:53;;;;;;;3.17;1.80;;;25.80;58.10;;;;;;5084655;28;20144;-72
2022/06/26 11:15:24;;;;;;;3.72;1.90;;;25.80;58.20;;;;;;5083710;28;20518;-71
2022/06/26 11:18:00;;;;;;;2.03;1.80;;;25.70;57.90;;;;;;5084241;28;20060;-72
2022/06/26 11:23:15;;;;;;;2.45;1.70;;;25.70;57.60;;;;;;5063838;28;20056;-71
2022/06/26 11:25:42;;;;;;;4.03;1.85;;;25.70;57.60;;;;;;5067935;28;20059;-72
2022/06/26 11:28:09;;;;;;;10.05;2.38;;;25.80;58.90;;;;;;5064837;28;20056;-71
2022/06/26 11:30:37;;;;;;;5.18;1.90;;;25.70;57.30;;;;;;5062343;28;20052;-72
2022/06/26 11:33:05;;;;;;;5.47;2.08;;;25.60;57.00;;;;;;5062693;28;20056;-72
2022/06/26 11:35:33;;;;;;;5.15;1.90;;;25.60;56.90;;;;;;5063858;28;20080;-72
2022/06/26 11:38:01;;;;;;;6.68;1.83;;;25.60;57.00;;;;;;5073057;28;20051;-72
2022/06/26 11:40:27;;;;;;;2.08;1.70;;;23.20;57.20;;;;;;5073203;28;20052;-71
2022/06/26 11:42:55;;;;;;;4.32;1.85;;;25.60;57.10;;;;;;5070183;28;20140;-71
2022/06/26 11:45:23;;;;;;;4.60;1.73;;;25.60;57.10;;;;;;5069948;28;20063;-72
2022/06/26 11:47:50;;;;;;;4.07;1.80;;;25.60;57.10;;;;;;5070361;28;20505;-70
2022/06/26 11:50:21;;;;;;;1.98;1.50;;;25.70;57.10;;;;;;5071497;28;20070;-71
2022/06/26 11:52:52;;;;;;;2.83;1.70;;;25.70;57.00;;;;;;5070302;28;20062;-71
2022/06/26 11:55:19;;;;;;;4.28;1.60;;;25.70;57.00;;;;;;5068267;28;20063;-71
2022/06/26 11:57:46;;;;;;;2.55;1.45;;;25.60;56.60;;;;;;5071349;28;20059;-71
2022/06/26 12:00:13;;;;;;;2.50;1.77;;;25.70;56.90;;;;;;5070277;28;20057;-71
2022/06/26 12:02:41;;;;;;;2.53;1.70;;;25.80;56.90;;;;;;5069519;28;20054;-71
2022/06/26 12:05:08;;;;;;;2.47;1.80;;;25.80;56.90;;;;;;5070951;28;20267;-71
2022/06/26 12:07:41;;;;;;;3.00;1.98;;;25.80;56.80;;;;;;5070141;28;20052;-71
2022/06/26 12:10:08;;;;;;;3.75;1.50;;;25.90;56.90;;;;;;5069069;28;20131;-71
2022/06/26 12:12:35;;;;;;;2.20;1.60;;;25.80;56.80;;;;;;5069288;28;20054;-72
2022/06/26 12:15:01;;;;;;;2.03;1.50;;;25.80;56.80;;;;;;5071032;28;20054;-71
2022/06/26 12:17:29;;;;;;;2.90;1.48;;;25.80;56.80;;;;;;5070613;28;20322;-70
2022/06/26 12:20:05;;;;;;;3.38;1.70;;;25.80;56.70;;;;;;5071056;28;20139;-71
2022/06/26 12:22:32;;;;;;;4.13;1.50;;;25.90;56.70;;;;;;5069056;28;20139;-70
2022/06/26 12:25:01;;;;;;;4.40;1.60;;;25.90;56.80;;;;;;5070445;28;20056;-70
2022/06/26 12:27:35;;;;;;;2.22;1.60;;;25.90;56.70;;;;;;5067456;28;20082;-71
2022/06/26 12:30:02;;;;;;;2.50;1.80;;;25.90;56.60;;;;;;5050563;28;20047;-71
2022/06/26 12:32:28;;;;;;;2.95;1.50;;;25.90;56.60;;;;;;5050619;28;20132;-71
2022/06/26 12:34:55;;;;;;;2.85;1.60;;;25.90;56.50;;;;;;5050219;28;20616;-70
2022/06/26 12:37:22;;;;;;;2.05;1.60;;;25.90;56.50;;;;;;5049401;28;20063;-70
2022/06/26 12:39:49;;;;;;;2.17;1.60;;;25.80;56.40;;;;;;5050571;28;20056;-70
2022/06/26 12:42:17;;;;;;;3.53;1.60;;;25.90;56.50;;;;;;5050464;28;20071;-71
2022/06/26 12:44:44;;;;;;;2.30;1.50;;;25.80;56.40;;;;;;5051209;28;20041;-71
2022/06/26 12:47:10;;;;;;;2.50;1.60;;;25.80;56.40;;;;;;5048956;28;20049;-71
2022/06/26 12:49:37;;;;;;;2.95;1.50;;;25.90;56.50;;;;;;5048812;28;20631;-71
2022/06/26 12:52:04;;;;;;;1.88;1.50;;;25.80;56.40;;;;;;5048253;28;20371;-71
2022/06/26 12:54:31;;;;;;;3.35;1.70;;;25.80;56.40;;;;;;5048772;28;20083;-71
2022/06/26 12:56:58;;;;;;;3.17;1.30;;;25.90;56.50;;;;;;5050213;28;20165;-71
2022/06/26 12:59:26;;;;;;;2.92;1.50;;;25.80;56.40;;;;;;5048846;28;20051;-71
2022/06/26 13:01:53;;;;;;;2.45;1.42;;;25.80;56.40;;;;;;5057972;28;20131;-71
2022/06/26 13:04:19;;;;;;;2.83;1.73;;;25.80;56.40;;;;;;5069808;28;20091;-71
2022/06/26 13:06:46;;;;;;;2.50;1.60;;;25.80;56.50;;;;;;5070235;28;20049;-71